sensor_id;sensor_type;location;lat;lon;timestamp;P1;durP1;ratioP1;P2;durP2;ratioP2
20945;SDS011;10632;51.276;7.116;2022-08-19T00:00:51;5.93;;;3.15;;
20945;SDS011;10632;51.276;7.116;2022-08-19T00:03:17;6.95;;;3.20;;
20945;SDS011;10632;51.276;7.116;2022-08-19T00:05:44;6.82;;;3.47;;
20945;SDS011;10632;51.276;7.116;2022-08-19T00:08:11;6.72;;;3.50;;
20945;SDS011;10632;51.276;7.116;2022-08-19T00:10:38;8.95;;;3.92;;
20945;SDS011;10632;51.276;7.116;2022-08-19T00:13:07;6.95;;;3.88;;
20945;SDS011;10632;51.276;7.116;2022-08-19T00:15:35;8.98;;;3.67;;
20945;SDS011;10632;51.276;7.116;2022-08-19T00:18:02;7.68;;;3.55;;
20945;SDS011;10632;51.276;7.116;2022-08-19T00:20:29;8.40;;;3.85;;
20945;SDS011;10632;51.276;7.116;2022-08-19T00:22:56;10.38;;;3.83;;
20945;SDS011;10632;51.276;7.116;2022-08-19T00:25:23;7.00;;;3.60;;
20945;SDS011;10632;51.276;7.116;2022-08-19T00:27:50;6.25;;;3.47;;
20945;SDS011;10632;51.276;7.116;2022-08-19T00:30:18;9.65;;;4.35;;
20945;SDS011;10632;51.276;7.116;2022-08-19T00:32:45;8.07;;;4.00;;
20945;SDS011;10632;51.276;7.116;2022-08-19T00:35:12;9.48;;;4.63;;
20945;SDS011;10632;51.276;7.116;2022-08-19T00:37:42;9.38;;;4.30;;
20945;SDS011;10632;51.276;7.116;2022-08-19T00:40:10;9.00;;;4.35;;
20945;SDS011;10632;51.276;7.116;2022-08-19T00:42:38;9.77;;;4.80;;
20945;SDS011;10632;51.276;7.116;2022-08-19T00:45:09;10.00;;;4.78;;
20945;SDS011;10632;51.276;7.116;2022-08-19T00:47:39;8.70;;;4.43;;
20945;SDS011;10632;51.276;7.116;2022-08-19T00:50:07;8.02;;;3.95;;
20945;SDS011;10632;51.276;7.116;2022-08-19T00:52:37;11.20;;;4.32;;
20945;SDS011;10632;51.276;7.116;2022-08-19T00:55:10;11.13;;;5.25;;
20945;SDS011;10632;51.276;7.116;2022-08-19T00:57:42;10.40;;;4.95;;
20945;SDS011;10632;51.276;7.116;2022-08-19T01:00:15;10.10;;;4.40;;
20945;SDS011;10632;51.276;7.116;2022-08-19T01:02:46;11.25;;;4.95;;
20945;SDS011;10632;51.276;7.116;2022-08-19T01:05:14;10.73;;;4.45;;
20945;SDS011;10632;51.276;7.116;2022-08-19T01:07:46;8.50;;;4.30;;
20945;SDS011;10632;51.276;7.116;2022-08-19T01:10:15;9.05;;;4.20;;
20945;SDS011;10632;51.276;7.116;2022-08-19T01:12:45;9.82;;;4.30;;
20945;SDS011;10632;51.276;7.116;2022-08-19T01:15:14;8.00;;;4.13;;
20945;SDS011;10632;51.276;7.116;2022-08-19T01:17:46;7.97;;;3.65;;
20945;SDS011;10632;51.276;7.116;2022-08-19T01:20:15;7.78;;;3.90;;
20945;SDS011;10632;51.276;7.116;2022-08-19T01:22:46;7.80;;;3.75;;
20945;SDS011;10632;51.276;7.116;2022-08-19T01:25:15;7.05;;;3.80;;
20945;SDS011;10632;51.276;7.116;2022-08-19T01:27:48;8.90;;;4.28;;
20945;SDS011;10632;51.276;7.116;2022-08-19T01:30:18;9.35;;;4.38;;
20945;SDS011;10632;51.276;7.116;2022-08-19T01:32:47;9.77;;;4.43;;
20945;SDS011;10632;51.276;7.116;2022-08-19T01:35:15;11.25;;;5.30;;
20945;SDS011;10632;51.276;7.116;2022-08-19T01:37:48;13.63;;;5.32;;
20945;SDS011;10632;51.276;7.116;2022-08-19T01:40:17;12.43;;;5.93;;
20945;SDS011;10632;51.276;7.116;2022-08-19T01:42:46;10.80;;;5.63;;
20945;SDS011;10632;51.276;7.116;2022-08-19T01:45:14;14.57;;;5.80;;
20945;SDS011;10632;51.276;7.116;2022-08-19T01:47:41;14.20;;;6.15;;
20945;SDS011;10632;51.276;7.116;2022-08-19T01:50:09;12.15;;;5.60;;
20945;SDS011;10632;51.276;7.116;2022-08-19T01:52:37;11.30;;;5.40;;
20945;SDS011;10632;51.276;7.116;2022-08-19T01:55:07;10.85;;;5.30;;
20945;SDS011;10632;51.276;7.116;2022-08-19T01:57:37;9.55;;;4.63;;
20945;SDS011;10632;51.276;7.116;2022-08-19T02:00:08;10.05;;;4.88;;
20945;SDS011;10632;51.276;7.116;2022-08-19T02:02:37;8.57;;;4.57;;
20945;SDS011;10632;51.276;7.116;2022-08-19T02:05:04;9.15;;;4.32;;
20945;SDS011;10632;51.276;7.116;2022-08-19T02:07:32;9.38;;;4.70;;
20945;SDS011;10632;51.276;7.116;2022-08-19T02:10:00;9.52;;;4.07;;
20945;SDS011;10632;51.276;7.116;2022-08-19T02:12:30;10.50;;;4.68;;
20945;SDS011;10632;51.276;7.116;2022-08-19T02:14:58;10.35;;;4.22;;
20945;SDS011;10632;51.276;7.116;2022-08-19T02:17:26;9.98;;;4.57;;
20945;SDS011;10632;51.276;7.116;2022-08-19T02:19:53;9.82;;;4.95;;
20945;SDS011;10632;51.276;7.116;2022-08-19T02:22:20;9.05;;;3.85;;
20945;SDS011;10632;51.276;7.116;2022-08-19T02:24:47;10.55;;;4.35;;
20945;SDS011;10632;51.276;7.116;2022-08-19T02:27:14;7.32;;;4.28;;
20945;SDS011;10632;51.276;7.116;2022-08-19T02:29:43;7.97;;;4.00;;
20945;SDS011;10632;51.276;7.116;2022-08-19T02:32:11;12.00;;;5.15;;
20945;SDS011;10632;51.276;7.116;2022-08-19T02:34:38;13.30;;;6.20;;
20945;SDS011;10632;51.276;7.116;2022-08-19T02:37:05;13.38;;;5.85;;
20945;SDS011;10632;51.276;7.116;2022-08-19T02:39:53;13.05;;;5.68;;
20945;SDS011;10632;51.276;7.116;2022-08-19T02:42:19;11.20;;;5.45;;
20945;SDS011;10632;51.276;7.116;2022-08-19T02:44:47;10.07;;;4.95;;
20945;SDS011;10632;51.276;7.116;2022-08-19T02:47:14;14.02;;;5.68;;
20945;SDS011;10632;51.276;7.116;2022-08-19T02:49:41;11.65;;;5.40;;
20945;SDS011;10632;51.276;7.116;2022-08-19T02:52:08;11.00;;;5.00;;
20945;SDS011;10632;51.276;7.116;2022-08-19T02:54:36;11.52;;;5.28;;
20945;SDS011;10632;51.276;7.116;2022-08-19T02:57:03;12.07;;;5.20;;
20945;SDS011;10632;51.276;7.116;2022-08-19T02:59:31;10.85;;;4.82;;
20945;SDS011;10632;51.276;7.116;2022-08-19T03:01:59;10.50;;;4.47;;
20945;SDS011;10632;51.276;7.116;2022-08-19T03:04:26;16.52;;;5.70;;
20945;SDS011;10632;51.276;7.116;2022-08-19T03:06:54;13.45;;;5.03;;
20945;SDS011;10632;51.276;7.116;2022-08-19T03:09:22;13.25;;;5.63;;
20945;SDS011;10632;51.276;7.116;2022-08-19T03:11:49;12.77;;;5.38;;
20945;SDS011;10632;51.276;7.116;2022-08-19T03:14:18;11.48;;;5.38;;
20945;SDS011;10632;51.276;7.116;2022-08-19T03:16:46;10.05;;;4.45;;
20945;SDS011;10632;51.276;7.116;2022-08-19T03:19:17;9.02;;;4.28;;
20945;SDS011;10632;51.276;7.116;2022-08-19T03:21:46;6.80;;;3.60;;
20945;SDS011;10632;51.276;7.116;2022-08-19T03:24:14;7.50;;;3.60;;
20945;SDS011;10632;51.276;7.116;2022-08-19T03:26:43;5.90;;;3.10;;
20945;SDS011;10632;51.276;7.116;2022-08-19T03:29:11;6.40;;;3.20;;
20945;SDS011;10632;51.276;7.116;2022-08-19T03:31:39;6.88;;;3.10;;
20945;SDS011;10632;51.276;7.116;2022-08-19T03:34:08;5.13;;;3.00;;
20945;SDS011;10632;51.276;7.116;2022-08-19T03:36:38;5.43;;;2.70;;
20945;SDS011;10632;51.276;7.116;2022-08-19T03:39:05;6.10;;;2.88;;
20945;SDS011;10632;51.276;7.116;2022-08-19T03:41:35;4.47;;;2.45;;
20945;SDS011;10632;51.276;7.116;2022-08-19T03:44:04;4.28;;;2.33;;
20945;SDS011;10632;51.276;7.116;2022-08-19T03:46:33;4.45;;;2.22;;
20945;SDS011;10632;51.276;7.116;2022-08-19T03:49:01;4.38;;;2.35;;
20945;SDS011;10632;51.276;7.116;2022-08-19T03:51:33;5.55;;;2.70;;
20945;SDS011;10632;51.276;7.116;2022-08-19T03:54:04;6.57;;;2.63;;
20945;SDS011;10632;51.276;7.116;2022-08-19T03:56:33;8.05;;;3.33;;
20945;SDS011;10632;51.276;7.116;2022-08-19T03:59:00;5.95;;;3.20;;
20945;SDS011;10632;51.276;7.116;2022-08-19T04:01:28;5.05;;;2.78;;
20945;SDS011;10632;51.276;7.116;2022-08-19T04:03:55;5.28;;;2.80;;
20945;SDS011;10632;51.276;7.116;2022-08-19T04:06:24;6.82;;;3.05;;
20945;SDS011;10632;51.276;7.116;2022-08-19T04:08:53;7.55;;;3.72;;
20945;SDS011;10632;51.276;7.116;2022-08-19T04:11:25;9.73;;;4.75;;
20945;SDS011;10632;51.276;7.116;2022-08-19T04:13:54;10.00;;;4.70;;
20945;SDS011;10632;51.276;7.116;2022-08-19T04:16:22;11.85;;;5.57;;
20945;SDS011;10632;51.276;7.116;2022-08-19T04:18:53;11.77;;;5.32;;
20945;SDS011;10632;51.276;7.116;2022-08-19T04:21:24;14.05;;;5.75;;
20945;SDS011;10632;51.276;7.116;2022-08-19T04:23:55;13.93;;;5.70;;
20945;SDS011;10632;51.276;7.116;2022-08-19T04:26:25;12.05;;;6.20;;
20945;SDS011;10632;51.276;7.116;2022-08-19T04:28:54;11.63;;;5.63;;
20945;SDS011;10632;51.276;7.116;2022-08-19T04:31:22;15.75;;;5.85;;
20945;SDS011;10632;51.276;7.116;2022-08-19T04:33:51;20.50;;;7.07;;
20945;SDS011;10632;51.276;7.116;2022-08-19T04:36:19;15.15;;;6.50;;
20945;SDS011;10632;51.276;7.116;2022-08-19T04:38:48;15.07;;;6.43;;
20945;SDS011;10632;51.276;7.116;2022-08-19T04:41:16;16.67;;;6.82;;
20945;SDS011;10632;51.276;7.116;2022-08-19T04:44:02;12.32;;;5.82;;
20945;SDS011;10632;51.276;7.116;2022-08-19T04:46:29;17.05;;;6.90;;
20945;SDS011;10632;51.276;7.116;2022-08-19T04:48:56;13.98;;;6.47;;
20945;SDS011;10632;51.276;7.116;2022-08-19T04:51:24;13.73;;;6.38;;
20945;SDS011;10632;51.276;7.116;2022-08-19T04:53:51;12.30;;;5.55;;
20945;SDS011;10632;51.276;7.116;2022-08-19T04:56:19;13.23;;;6.00;;
20945;SDS011;10632;51.276;7.116;2022-08-19T04:58:48;15.82;;;6.60;;
20945;SDS011;10632;51.276;7.116;2022-08-19T05:01:19;14.00;;;6.75;;
20945;SDS011;10632;51.276;7.116;2022-08-19T05:03:46;15.20;;;6.85;;
20945;SDS011;10632;51.276;7.116;2022-08-19T05:06:15;15.15;;;6.80;;
20945;SDS011;10632;51.276;7.116;2022-08-19T05:08:43;13.45;;;6.35;;
20945;SDS011;10632;51.276;7.116;2022-08-19T05:11:12;14.15;;;6.65;;
20945;SDS011;10632;51.276;7.116;2022-08-19T05:13:40;17.38;;;8.52;;
20945;SDS011;10632;51.276;7.116;2022-08-19T05:16:09;14.02;;;6.65;;
20945;SDS011;10632;51.276;7.116;2022-08-19T05:18:38;14.90;;;7.35;;
20945;SDS011;10632;51.276;7.116;2022-08-19T05:21:24;15.25;;;6.85;;
20945;SDS011;10632;51.276;7.116;2022-08-19T05:24:11;16.40;;;6.68;;
20945;SDS011;10632;51.276;7.116;2022-08-19T05:26:39;18.20;;;8.07;;
20945;SDS011;10632;51.276;7.116;2022-08-19T05:29:08;17.65;;;7.57;;
20945;SDS011;10632;51.276;7.116;2022-08-19T05:31:35;15.90;;;6.68;;
20945;SDS011;10632;51.276;7.116;2022-08-19T05:34:05;21.25;;;8.60;;
20945;SDS011;10632;51.276;7.116;2022-08-19T05:36:34;24.15;;;9.75;;
20945;SDS011;10632;51.276;7.116;2022-08-19T05:39:04;16.83;;;8.15;;
20945;SDS011;10632;51.276;7.116;2022-08-19T05:41:32;20.42;;;8.15;;
20945;SDS011;10632;51.276;7.116;2022-08-19T05:44:00;21.65;;;8.63;;
20945;SDS011;10632;51.276;7.116;2022-08-19T05:46:31;21.17;;;8.73;;
20945;SDS011;10632;51.276;7.116;2022-08-19T05:48:58;19.25;;;9.00;;
20945;SDS011;10632;51.276;7.116;2022-08-19T05:51:26;21.23;;;9.48;;
20945;SDS011;10632;51.276;7.116;2022-08-19T05:53:53;19.92;;;8.95;;
20945;SDS011;10632;51.276;7.116;2022-08-19T05:56:20;21.25;;;8.95;;
20945;SDS011;10632;51.276;7.116;2022-08-19T05:58:47;25.20;;;10.18;;
20945;SDS011;10632;51.276;7.116;2022-08-19T06:01:14;30.17;;;11.30;;
20945;SDS011;10632;51.276;7.116;2022-08-19T06:03:43;27.23;;;10.45;;
20945;SDS011;10632;51.276;7.116;2022-08-19T06:06:11;23.17;;;10.02;;
20945;SDS011;10632;51.276;7.116;2022-08-19T06:08:40;25.52;;;9.48;;
20945;SDS011;10632;51.276;7.116;2022-08-19T06:11:17;22.00;;;9.38;;
20945;SDS011;10632;51.276;7.116;2022-08-19T06:13:46;21.83;;;8.73;;
20945;SDS011;10632;51.276;7.116;2022-08-19T06:16:16;23.17;;;10.05;;
20945;SDS011;10632;51.276;7.116;2022-08-19T06:18:47;21.45;;;10.48;;
20945;SDS011;10632;51.276;7.116;2022-08-19T06:21:19;23.92;;;10.27;;
20945;SDS011;10632;51.276;7.116;2022-08-19T06:23:49;34.03;;;12.95;;
20945;SDS011;10632;51.276;7.116;2022-08-19T06:26:17;24.90;;;11.27;;
20945;SDS011;10632;51.276;7.116;2022-08-19T06:28:46;27.88;;;11.85;;
20945;SDS011;10632;51.276;7.116;2022-08-19T06:31:13;30.02;;;12.25;;
20945;SDS011;10632;51.276;7.116;2022-08-19T06:33:41;33.95;;;13.48;;
20945;SDS011;10632;51.276;7.116;2022-08-19T06:36:08;33.75;;;14.07;;
20945;SDS011;10632;51.276;7.116;2022-08-19T06:38:43;32.25;;;13.18;;
20945;SDS011;10632;51.276;7.116;2022-08-19T06:41:11;35.58;;;13.60;;
20945;SDS011;10632;51.276;7.116;2022-08-19T06:43:38;27.73;;;12.23;;
20945;SDS011;10632;51.276;7.116;2022-08-19T06:46:09;32.15;;;14.20;;
20945;SDS011;10632;51.276;7.116;2022-08-19T06:48:37;36.03;;;14.15;;
20945;SDS011;10632;51.276;7.116;2022-08-19T06:51:05;34.60;;;13.70;;
20945;SDS011;10632;51.276;7.116;2022-08-19T06:53:43;32.67;;;12.75;;
20945;SDS011;10632;51.276;7.116;2022-08-19T06:56:23;30.67;;;13.13;;
20945;SDS011;10632;51.276;7.116;2022-08-19T06:59:03;31.05;;;13.57;;
20945;SDS011;10632;51.276;7.116;2022-08-19T07:01:34;28.55;;;11.90;;
20945;SDS011;10632;51.276;7.116;2022-08-19T07:04:12;36.53;;;14.35;;
20945;SDS011;10632;51.276;7.116;2022-08-19T07:06:49;27.33;;;12.25;;
20945;SDS011;10632;51.276;7.116;2022-08-19T07:09:29;36.17;;;14.38;;
20945;SDS011;10632;51.276;7.116;2022-08-19T07:12:04;35.83;;;13.93;;
20945;SDS011;10632;51.276;7.116;2022-08-19T07:14:37;29.73;;;12.63;;
20945;SDS011;10632;51.276;7.116;2022-08-19T07:17:10;29.50;;;11.77;;
20945;SDS011;10632;51.276;7.116;2022-08-19T07:19:38;38.22;;;14.73;;
20945;SDS011;10632;51.276;7.116;2022-08-19T07:22:08;34.28;;;13.80;;
20945;SDS011;10632;51.276;7.116;2022-08-19T07:24:36;36.92;;;14.45;;
20945;SDS011;10632;51.276;7.116;2022-08-19T07:27:06;32.28;;;13.95;;
20945;SDS011;10632;51.276;7.116;2022-08-19T07:29:35;35.95;;;14.63;;
20945;SDS011;10632;51.276;7.116;2022-08-19T07:32:03;31.70;;;12.63;;
20945;SDS011;10632;51.276;7.116;2022-08-19T07:34:31;30.60;;;12.95;;
20945;SDS011;10632;51.276;7.116;2022-08-19T07:37:01;38.25;;;15.13;;
20945;SDS011;10632;51.276;7.116;2022-08-19T07:39:29;43.17;;;15.18;;
20945;SDS011;10632;51.276;7.116;2022-08-19T07:41:58;29.25;;;12.50;;
20945;SDS011;10632;51.276;7.116;2022-08-19T07:44:28;44.15;;;15.57;;
20945;SDS011;10632;51.276;7.116;2022-08-19T07:46:56;44.45;;;16.42;;
20945;SDS011;10632;51.276;7.116;2022-08-19T07:49:23;38.08;;;15.73;;
20945;SDS011;10632;51.276;7.116;2022-08-19T07:51:52;36.80;;;15.98;;
20945;SDS011;10632;51.276;7.116;2022-08-19T07:54:21;38.75;;;15.55;;
20945;SDS011;10632;51.276;7.116;2022-08-19T07:56:49;46.10;;;17.80;;
20945;SDS011;10632;51.276;7.116;2022-08-19T07:59:18;43.42;;;16.50;;
20945;SDS011;10632;51.276;7.116;2022-08-19T08:01:47;42.40;;;17.23;;
20945;SDS011;10632;51.276;7.116;2022-08-19T08:04:18;38.75;;;16.30;;
20945;SDS011;10632;51.276;7.116;2022-08-19T08:07:04;44.30;;;18.63;;
20945;SDS011;10632;51.276;7.116;2022-08-19T08:09:50;44.97;;;18.48;;
20945;SDS011;10632;51.276;7.116;2022-08-19T08:12:18;50.00;;;18.67;;
20945;SDS011;10632;51.276;7.116;2022-08-19T08:14:48;47.03;;;18.88;;
20945;SDS011;10632;51.276;7.116;2022-08-19T08:17:20;44.90;;;17.90;;
20945;SDS011;10632;51.276;7.116;2022-08-19T08:19:49;58.72;;;21.25;;
20945;SDS011;10632;51.276;7.116;2022-08-19T08:22:17;55.70;;;21.38;;
20945;SDS011;10632;51.276;7.116;2022-08-19T08:25:03;54.40;;;19.60;;
20945;SDS011;10632;51.276;7.116;2022-08-19T08:27:31;46.85;;;18.88;;
20945;SDS011;10632;51.276;7.116;2022-08-19T08:30:05;47.83;;;18.42;;
20945;SDS011;10632;51.276;7.116;2022-08-19T08:32:35;42.58;;;16.58;;
20945;SDS011;10632;51.276;7.116;2022-08-19T08:35:03;43.05;;;17.02;;
20945;SDS011;10632;51.276;7.116;2022-08-19T08:37:31;41.92;;;16.20;;
20945;SDS011;10632;51.276;7.116;2022-08-19T08:39:58;43.33;;;17.05;;
20945;SDS011;10632;51.276;7.116;2022-08-19T08:42:27;47.17;;;16.48;;
20945;SDS011;10632;51.276;7.116;2022-08-19T08:45:00;41.88;;;16.38;;
20945;SDS011;10632;51.276;7.116;2022-08-19T08:47:34;39.80;;;15.75;;
20945;SDS011;10632;51.276;7.116;2022-08-19T08:50:07;42.20;;;15.95;;
20945;SDS011;10632;51.276;7.116;2022-08-19T08:52:41;37.90;;;15.90;;
20945;SDS011;10632;51.276;7.116;2022-08-19T08:55:12;40.22;;;15.85;;
20945;SDS011;10632;51.276;7.116;2022-08-19T08:57:50;41.83;;;15.93;;
20945;SDS011;10632;51.276;7.116;2022-08-19T09:00:23;37.83;;;15.57;;
20945;SDS011;10632;51.276;7.116;2022-08-19T09:02:54;36.67;;;15.07;;
20945;SDS011;10632;51.276;7.116;2022-08-19T09:05:25;42.97;;;15.70;;
20945;SDS011;10632;51.276;7.116;2022-08-19T09:08:00;35.67;;;14.95;;
20945;SDS011;10632;51.276;7.116;2022-08-19T09:10:37;40.08;;;15.05;;
20945;SDS011;10632;51.276;7.116;2022-08-19T09:13:07;36.03;;;15.35;;
20945;SDS011;10632;51.276;7.116;2022-08-19T09:15:42;38.97;;;15.65;;
20945;SDS011;10632;51.276;7.116;2022-08-19T09:18:13;33.45;;;14.05;;
20945;SDS011;10632;51.276;7.116;2022-08-19T09:20:41;37.58;;;14.82;;
20945;SDS011;10632;51.276;7.116;2022-08-19T09:23:08;35.28;;;14.52;;
20945;SDS011;10632;51.276;7.116;2022-08-19T09:25:36;39.22;;;15.23;;
20945;SDS011;10632;51.276;7.116;2022-08-19T09:28:05;37.45;;;14.80;;
20945;SDS011;10632;51.276;7.116;2022-08-19T09:30:33;36.25;;;14.27;;
20945;SDS011;10632;51.276;7.116;2022-08-19T09:33:04;35.10;;;13.60;;
20945;SDS011;10632;51.276;7.116;2022-08-19T09:35:33;32.50;;;12.45;;
20945;SDS011;10632;51.276;7.116;2022-08-19T09:38:01;27.67;;;12.25;;
20945;SDS011;10632;51.276;7.116;2022-08-19T09:40:29;25.05;;;11.07;;
20945;SDS011;10632;51.276;7.116;2022-08-19T09:42:58;27.98;;;11.73;;
20945;SDS011;10632;51.276;7.116;2022-08-19T09:45:27;33.92;;;12.50;;
20945;SDS011;10632;51.276;7.116;2022-08-19T09:47:55;32.83;;;12.68;;
20945;SDS011;10632;51.276;7.116;2022-08-19T09:50:23;27.50;;;11.60;;
20945;SDS011;10632;51.276;7.116;2022-08-19T09:52:52;35.83;;;14.35;;
20945;SDS011;10632;51.276;7.116;2022-08-19T09:55:19;31.00;;;13.85;;
20945;SDS011;10632;51.276;7.116;2022-08-19T09:57:47;28.42;;;12.43;;
20945;SDS011;10632;51.276;7.116;2022-08-19T10:00:15;30.05;;;12.18;;
20945;SDS011;10632;51.276;7.116;2022-08-19T10:02:42;30.55;;;12.55;;
20945;SDS011;10632;51.276;7.116;2022-08-19T10:05:09;30.08;;;12.85;;
20945;SDS011;10632;51.276;7.116;2022-08-19T10:07:55;33.30;;;13.02;;
20945;SDS011;10632;51.276;7.116;2022-08-19T10:10:22;34.25;;;13.18;;
20945;SDS011;10632;51.276;7.116;2022-08-19T10:12:50;36.60;;;14.32;;
20945;SDS011;10632;51.276;7.116;2022-08-19T10:15:18;33.15;;;13.68;;
20945;SDS011;10632;51.276;7.116;2022-08-19T10:17:46;31.17;;;13.13;;
20945;SDS011;10632;51.276;7.116;2022-08-19T10:20:13;30.50;;;13.63;;
20945;SDS011;10632;51.276;7.116;2022-08-19T10:22:40;30.55;;;13.13;;
20945;SDS011;10632;51.276;7.116;2022-08-19T10:25:10;28.23;;;12.60;;
20945;SDS011;10632;51.276;7.116;2022-08-19T10:27:41;28.08;;;11.80;;
20945;SDS011;10632;51.276;7.116;2022-08-19T10:30:09;26.98;;;12.35;;
20945;SDS011;10632;51.276;7.116;2022-08-19T10:32:36;25.42;;;10.95;;
20945;SDS011;10632;51.276;7.116;2022-08-19T10:35:04;28.17;;;12.38;;
20945;SDS011;10632;51.276;7.116;2022-08-19T10:37:33;22.25;;;10.50;;
20945;SDS011;10632;51.276;7.116;2022-08-19T10:40:00;20.15;;;9.45;;
20945;SDS011;10632;51.276;7.116;2022-08-19T10:42:29;23.77;;;10.95;;
20945;SDS011;10632;51.276;7.116;2022-08-19T10:44:57;23.75;;;9.85;;
20945;SDS011;10632;51.276;7.116;2022-08-19T10:47:24;22.83;;;9.88;;
20945;SDS011;10632;51.276;7.116;2022-08-19T10:49:52;27.58;;;11.77;;
20945;SDS011;10632;51.276;7.116;2022-08-19T10:52:38;26.80;;;9.93;;
20945;SDS011;10632;51.276;7.116;2022-08-19T10:55:06;25.60;;;10.80;;
20945;SDS011;10632;51.276;7.116;2022-08-19T10:57:52;24.05;;;11.25;;
20945;SDS011;10632;51.276;7.116;2022-08-19T11:00:19;26.25;;;11.57;;
20945;SDS011;10632;51.276;7.116;2022-08-19T11:02:47;21.92;;;10.32;;
20945;SDS011;10632;51.276;7.116;2022-08-19T11:05:15;23.48;;;10.68;;
20945;SDS011;10632;51.276;7.116;2022-08-19T11:07:43;22.70;;;10.95;;
20945;SDS011;10632;51.276;7.116;2022-08-19T11:10:15;26.08;;;11.63;;
20945;SDS011;10632;51.276;7.116;2022-08-19T11:12:44;22.90;;;11.77;;
20945;SDS011;10632;51.276;7.116;2022-08-19T11:15:14;23.17;;;11.55;;
20945;SDS011;10632;51.276;7.116;2022-08-19T11:17:42;23.95;;;10.77;;
20945;SDS011;10632;51.276;7.116;2022-08-19T11:20:10;27.48;;;11.93;;
20945;SDS011;10632;51.276;7.116;2022-08-19T11:22:38;24.70;;;10.95;;
20945;SDS011;10632;51.276;7.116;2022-08-19T11:25:06;27.63;;;12.45;;
20945;SDS011;10632;51.276;7.116;2022-08-19T11:27:37;22.75;;;10.55;;
20945;SDS011;10632;51.276;7.116;2022-08-19T11:30:07;23.35;;;10.68;;
20945;SDS011;10632;51.276;7.116;2022-08-19T11:32:37;23.67;;;10.93;;
20945;SDS011;10632;51.276;7.116;2022-08-19T11:35:04;18.45;;;9.23;;
20945;SDS011;10632;51.276;7.116;2022-08-19T11:37:32;19.17;;;9.65;;
20945;SDS011;10632;51.276;7.116;2022-08-19T11:40:02;21.42;;;10.60;;
20945;SDS011;10632;51.276;7.116;2022-08-19T11:42:37;22.92;;;11.18;;
20945;SDS011;10632;51.276;7.116;2022-08-19T11:45:22;20.15;;;9.60;;
20945;SDS011;10632;51.276;7.116;2022-08-19T11:47:51;23.30;;;11.25;;
20945;SDS011;10632;51.276;7.116;2022-08-19T11:50:18;20.45;;;9.63;;
20945;SDS011;10632;51.276;7.116;2022-08-19T11:52:45;16.48;;;7.93;;
20945;SDS011;10632;51.276;7.116;2022-08-19T11:55:14;15.25;;;7.85;;
20945;SDS011;10632;51.276;7.116;2022-08-19T11:57:42;18.50;;;8.80;;
20945;SDS011;10632;51.276;7.116;2022-08-19T12:00:09;18.60;;;7.72;;
20945;SDS011;10632;51.276;7.116;2022-08-19T12:02:38;19.08;;;8.90;;
20945;SDS011;10632;51.276;7.116;2022-08-19T12:05:08;17.00;;;8.30;;
20945;SDS011;10632;51.276;7.116;2022-08-19T12:07:36;15.50;;;7.22;;
20945;SDS011;10632;51.276;7.116;2022-08-19T12:10:03;17.13;;;8.30;;
20945;SDS011;10632;51.276;7.116;2022-08-19T12:12:30;19.88;;;8.13;;
20945;SDS011;10632;51.276;7.116;2022-08-19T12:14:58;18.27;;;7.65;;
20945;SDS011;10632;51.276;7.116;2022-08-19T12:17:25;10.98;;;6.20;;
20945;SDS011;10632;51.276;7.116;2022-08-19T12:19:52;11.80;;;6.28;;
20945;SDS011;10632;51.276;7.116;2022-08-19T12:22:21;11.30;;;6.00;;
20945;SDS011;10632;51.276;7.116;2022-08-19T12:24:49;16.08;;;6.35;;
20945;SDS011;10632;51.276;7.116;2022-08-19T12:27:18;11.05;;;6.75;;
20945;SDS011;10632;51.276;7.116;2022-08-19T12:29:45;11.00;;;5.72;;
20945;SDS011;10632;51.276;7.116;2022-08-19T12:32:12;9.52;;;4.95;;
20945;SDS011;10632;51.276;7.116;2022-08-19T12:34:39;9.77;;;4.90;;
20945;SDS011;10632;51.276;7.116;2022-08-19T12:37:07;9.45;;;5.38;;
20945;SDS011;10632;51.276;7.116;2022-08-19T12:39:38;8.95;;;4.70;;
20945;SDS011;10632;51.276;7.116;2022-08-19T12:42:06;11.68;;;5.55;;
20945;SDS011;10632;51.276;7.116;2022-08-19T12:44:35;14.10;;;6.70;;
20945;SDS011;10632;51.276;7.116;2022-08-19T12:47:03;10.90;;;5.72;;
20945;SDS011;10632;51.276;7.116;2022-08-19T12:49:31;14.18;;;5.78;;
20945;SDS011;10632;51.276;7.116;2022-08-19T12:51:59;11.00;;;5.40;;
20945;SDS011;10632;51.276;7.116;2022-08-19T12:54:26;10.43;;;5.18;;
20945;SDS011;10632;51.276;7.116;2022-08-19T12:56:55;9.25;;;4.90;;
20945;SDS011;10632;51.276;7.116;2022-08-19T12:59:22;8.02;;;4.53;;
20945;SDS011;10632;51.276;7.116;2022-08-19T13:01:49;12.23;;;4.85;;
20945;SDS011;10632;51.276;7.116;2022-08-19T13:04:16;14.57;;;4.85;;
20945;SDS011;10632;51.276;7.116;2022-08-19T13:06:43;10.38;;;4.95;;
20945;SDS011;10632;51.276;7.116;2022-08-19T13:09:10;9.75;;;5.65;;
20945;SDS011;10632;51.276;7.116;2022-08-19T13:11:37;11.32;;;5.78;;
20945;SDS011;10632;51.276;7.116;2022-08-19T13:14:06;8.30;;;4.70;;
20945;SDS011;10632;51.276;7.116;2022-08-19T13:16:33;10.23;;;4.90;;
20945;SDS011;10632;51.276;7.116;2022-08-19T13:19:00;12.85;;;5.20;;
20945;SDS011;10632;51.276;7.116;2022-08-19T13:21:29;10.60;;;5.43;;
20945;SDS011;10632;51.276;7.116;2022-08-19T13:23:56;11.10;;;5.40;;
20945;SDS011;10632;51.276;7.116;2022-08-19T13:26:23;8.50;;;4.97;;
20945;SDS011;10632;51.276;7.116;2022-08-19T13:28:53;16.15;;;5.80;;
20945;SDS011;10632;51.276;7.116;2022-08-19T13:31:40;9.00;;;4.72;;
20945;SDS011;10632;51.276;7.116;2022-08-19T13:34:26;8.32;;;4.82;;
20945;SDS011;10632;51.276;7.116;2022-08-19T13:36:55;9.27;;;4.80;;
20945;SDS011;10632;51.276;7.116;2022-08-19T13:39:28;10.93;;;4.22;;
20945;SDS011;10632;51.276;7.116;2022-08-19T13:41:55;10.85;;;4.75;;
20945;SDS011;10632;51.276;7.116;2022-08-19T13:44:22;8.77;;;4.82;;
20945;SDS011;10632;51.276;7.116;2022-08-19T13:46:51;9.27;;;4.80;;
20945;SDS011;10632;51.276;7.116;2022-08-19T13:49:18;8.35;;;4.15;;
20945;SDS011;10632;51.276;7.116;2022-08-19T13:51:45;7.28;;;4.30;;
20945;SDS011;10632;51.276;7.116;2022-08-19T13:54:13;9.55;;;4.45;;
20945;SDS011;10632;51.276;7.116;2022-08-19T13:56:40;8.88;;;4.38;;
20945;SDS011;10632;51.276;7.116;2022-08-19T13:59:08;7.90;;;4.30;;
20945;SDS011;10632;51.276;7.116;2022-08-19T14:01:36;9.02;;;4.70;;
20945;SDS011;10632;51.276;7.116;2022-08-19T14:04:05;10.57;;;4.40;;
20945;SDS011;10632;51.276;7.116;2022-08-19T14:06:32;8.68;;;4.45;;
20945;SDS011;10632;51.276;7.116;2022-08-19T14:08:59;12.95;;;4.78;;
20945;SDS011;10632;51.276;7.116;2022-08-19T14:11:27;6.25;;;3.70;;
20945;SDS011;10632;51.276;7.116;2022-08-19T14:13:54;7.80;;;4.20;;
20945;SDS011;10632;51.276;7.116;2022-08-19T14:16:21;10.13;;;4.22;;
20945;SDS011;10632;51.276;7.116;2022-08-19T14:18:49;7.70;;;4.15;;
20945;SDS011;10632;51.276;7.116;2022-08-19T14:21:19;9.20;;;4.13;;
20945;SDS011;10632;51.276;7.116;2022-08-19T14:23:48;11.45;;;4.25;;
20945;SDS011;10632;51.276;7.116;2022-08-19T14:26:16;8.52;;;4.25;;
20945;SDS011;10632;51.276;7.116;2022-08-19T14:28:45;9.05;;;4.03;;
20945;SDS011;10632;51.276;7.116;2022-08-19T14:31:13;8.65;;;4.43;;
20945;SDS011;10632;51.276;7.116;2022-08-19T14:33:43;10.63;;;4.30;;
20945;SDS011;10632;51.276;7.116;2022-08-19T14:36:11;10.52;;;3.90;;
20945;SDS011;10632;51.276;7.116;2022-08-19T14:38:39;8.73;;;4.00;;
20945;SDS011;10632;51.276;7.116;2022-08-19T14:41:11;6.88;;;3.45;;
20945;SDS011;10632;51.276;7.116;2022-08-19T14:43:41;8.75;;;3.85;;
20945;SDS011;10632;51.276;7.116;2022-08-19T14:46:12;5.32;;;3.08;;